sensor_id;sensor_type;location;lat;lon;timestamp;P1;durP1;ratioP1;P2;durP2;ratioP2
23578;SDS011;11967;50.852;4.400;2023-10-31T00:01:19;19.58;;;12.60;;
23578;SDS011;11967;50.852;4.400;2023-10-31T00:03:46;20.65;;;12.80;;
23578;SDS011;11967;50.852;4.400;2023-10-31T00:06:12;22.30;;;12.48;;
23578;SDS011;11967;50.852;4.400;2023-10-31T00:08:37;21.17;;;13.20;;
23578;SDS011;11967;50.852;4.400;2023-10-31T00:11:03;19.80;;;11.50;;
23578;SDS011;11967;50.852;4.400;2023-10-31T00:13:29;16.98;;;11.05;;
23578;SDS011;11967;50.852;4.400;2023-10-31T00:15:54;17.95;;;10.98;;
23578;SDS011;11967;50.852;4.400;2023-10-31T00:18:20;16.52;;;10.05;;
23578;SDS011;11967;50.852;4.400;2023-10-31T00:20:46;17.45;;;11.00;;
23578;SDS011;11967;50.852;4.400;2023-10-31T00:23:11;14.73;;;10.05;;
23578;SDS011;11967;50.852;4.400;2023-10-31T00:25:37;16.58;;;10.20;;
23578;SDS011;11967;50.852;4.400;2023-10-31T00:28:03;16.05;;;10.52;;
23578;SDS011;11967;50.852;4.400;2023-10-31T00:30:29;15.30;;;9.88;;
23578;SDS011;11967;50.852;4.400;2023-10-31T00:32:54;15.15;;;8.93;;
23578;SDS011;11967;50.852;4.400;2023-10-31T00:35:20;13.52;;;9.15;;
23578;SDS011;11967;50.852;4.400;2023-10-31T00:37:45;13.25;;;8.70;;
23578;SDS011;11967;50.852;4.400;2023-10-31T00:40:11;13.90;;;8.73;;
23578;SDS011;11967;50.852;4.400;2023-10-31T00:42:37;13.38;;;8.55;;
23578;SDS011;11967;50.852;4.400;2023-10-31T00:45:05;8.73;;;7.35;;
23578;SDS011;11967;50.852;4.400;2023-10-31T00:47:31;10.88;;;7.50;;
23578;SDS011;11967;50.852;4.400;2023-10-31T00:49:57;10.68;;;7.28;;
23578;SDS011;11967;50.852;4.400;2023-10-31T00:52:23;11.50;;;7.25;;
23578;SDS011;11967;50.852;4.400;2023-10-31T00:54:49;10.63;;;7.55;;
23578;SDS011;11967;50.852;4.400;2023-10-31T00:57:15;9.75;;;6.95;;
23578;SDS011;11967;50.852;4.400;2023-10-31T00:59:41;12.05;;;7.30;;
23578;SDS011;11967;50.852;4.400;2023-10-31T01:02:06;9.88;;;7.05;;
23578;SDS011;11967;50.852;4.400;2023-10-31T01:04:32;10.05;;;6.90;;
23578;SDS011;11967;50.852;4.400;2023-10-31T01:06:58;12.65;;;7.50;;
23578;SDS011;11967;50.852;4.400;2023-10-31T01:09:23;10.50;;;7.25;;
23578;SDS011;11967;50.852;4.400;2023-10-31T01:11:49;9.40;;;6.80;;
23578;SDS011;11967;50.852;4.400;2023-10-31T01:14:14;9.82;;;7.05;;
23578;SDS011;11967;50.852;4.400;2023-10-31T01:16:40;12.90;;;7.28;;
23578;SDS011;11967;50.852;4.400;2023-10-31T01:19:06;11.23;;;6.70;;
23578;SDS011;11967;50.852;4.400;2023-10-31T01:21:32;10.55;;;7.03;;
23578;SDS011;11967;50.852;4.400;2023-10-31T01:23:58;12.30;;;7.78;;
23578;SDS011;11967;50.852;4.400;2023-10-31T01:26:24;8.18;;;6.72;;
23578;SDS011;11967;50.852;4.400;2023-10-31T01:28:50;11.85;;;7.53;;
23578;SDS011;11967;50.852;4.400;2023-10-31T01:31:16;12.95;;;7.47;;
23578;SDS011;11967;50.852;4.400;2023-10-31T01:33:42;12.32;;;6.70;;
23578;SDS011;11967;50.852;4.400;2023-10-31T01:36:08;13.52;;;8.02;;
23578;SDS011;11967;50.852;4.400;2023-10-31T01:38:35;12.93;;;6.78;;
23578;SDS011;11967;50.852;4.400;2023-10-31T01:41:01;12.38;;;7.53;;
23578;SDS011;11967;50.852;4.400;2023-10-31T01:43:33;11.00;;;6.53;;
23578;SDS011;11967;50.852;4.400;2023-10-31T01:48:28;8.23;;;6.63;;
23578;SDS011;11967;50.852;4.400;2023-10-31T01:50:55;14.27;;;6.53;;
23578;SDS011;11967;50.852;4.400;2023-10-31T01:53:23;11.55;;;6.75;;
23578;SDS011;11967;50.852;4.400;2023-10-31T01:55:51;12.57;;;6.72;;
23578;SDS011;11967;50.852;4.400;2023-10-31T01:58:17;7.75;;;6.18;;
23578;SDS011;11967;50.852;4.400;2023-10-31T02:00:50;11.73;;;6.70;;
23578;SDS011;11967;50.852;4.400;2023-10-31T02:03:16;10.23;;;6.53;;
23578;SDS011;11967;50.852;4.400;2023-10-31T02:05:42;11.75;;;6.63;;
23578;SDS011;11967;50.852;4.400;2023-10-31T02:08:08;7.85;;;6.15;;
23578;SDS011;11967;50.852;4.400;2023-10-31T02:10:34;9.82;;;6.22;;
23578;SDS011;11967;50.852;4.400;2023-10-31T02:13:10;8.60;;;5.88;;
23578;SDS011;11967;50.852;4.400;2023-10-31T02:15:40;9.85;;;6.55;;
23578;SDS011;11967;50.852;4.400;2023-10-31T02:18:06;10.00;;;6.38;;
23578;SDS011;11967;50.852;4.400;2023-10-31T02:20:32;12.55;;;6.88;;
23578;SDS011;11967;50.852;4.400;2023-10-31T02:22:57;8.27;;;6.18;;
23578;SDS011;11967;50.852;4.400;2023-10-31T02:25:24;7.78;;;6.25;;
23578;SDS011;11967;50.852;4.400;2023-10-31T02:27:49;8.65;;;6.53;;
23578;SDS011;11967;50.852;4.400;2023-10-31T02:30:15;9.23;;;6.20;;
23578;SDS011;11967;50.852;4.400;2023-10-31T02:32:41;10.32;;;6.20;;
23578;SDS011;11967;50.852;4.400;2023-10-31T02:35:07;6.97;;;5.55;;
23578;SDS011;11967;50.852;4.400;2023-10-31T02:37:33;10.13;;;6.43;;
23578;SDS011;11967;50.852;4.400;2023-10-31T02:39:59;11.10;;;6.70;;
23578;SDS011;11967;50.852;4.400;2023-10-31T02:42:26;9.63;;;7.22;;
23578;SDS011;11967;50.852;4.400;2023-10-31T02:44:52;9.50;;;7.03;;
23578;SDS011;11967;50.852;4.400;2023-10-31T02:47:18;9.38;;;6.63;;
23578;SDS011;11967;50.852;4.400;2023-10-31T02:49:43;7.82;;;6.22;;
23578;SDS011;11967;50.852;4.400;2023-10-31T02:52:09;8.75;;;6.65;;
23578;SDS011;11967;50.852;4.400;2023-10-31T02:54:35;8.15;;;6.90;;
23578;SDS011;11967;50.852;4.400;2023-10-31T02:57:01;8.45;;;6.55;;
23578;SDS011;11967;50.852;4.400;2023-10-31T02:59:27;8.65;;;6.85;;
23578;SDS011;11967;50.852;4.400;2023-10-31T03:01:53;11.52;;;6.60;;
23578;SDS011;11967;50.852;4.400;2023-10-31T03:04:18;10.10;;;6.65;;
23578;SDS011;11967;50.852;4.400;2023-10-31T03:06:44;8.43;;;6.80;;
23578;SDS011;11967;50.852;4.400;2023-10-31T03:09:10;9.18;;;6.47;;
23578;SDS011;11967;50.852;4.400;2023-10-31T03:11:35;8.27;;;6.45;;
23578;SDS011;11967;50.852;4.400;2023-10-31T03:14:01;9.07;;;7.22;;
23578;SDS011;11967;50.852;4.400;2023-10-31T03:16:27;9.70;;;7.55;;
23578;SDS011;11967;50.852;4.400;2023-10-31T03:18:52;9.75;;;8.02;;
23578;SDS011;11967;50.852;4.400;2023-10-31T03:21:18;12.45;;;8.27;;
23578;SDS011;11967;50.852;4.400;2023-10-31T03:23:47;11.25;;;8.48;;
23578;SDS011;11967;50.852;4.400;2023-10-31T03:26:14;12.18;;;9.30;;
23578;SDS011;11967;50.852;4.400;2023-10-31T03:28:40;10.98;;;9.10;;
23578;SDS011;11967;50.852;4.400;2023-10-31T03:31:08;11.68;;;8.85;;
23578;SDS011;11967;50.852;4.400;2023-10-31T03:33:34;11.52;;;9.75;;
23578;SDS011;11967;50.852;4.400;2023-10-31T03:35:59;11.05;;;9.45;;
23578;SDS011;11967;50.852;4.400;2023-10-31T03:38:25;14.95;;;10.32;;
23578;SDS011;11967;50.852;4.400;2023-10-31T03:40:50;12.70;;;10.15;;
23578;SDS011;11967;50.852;4.400;2023-10-31T03:43:16;15.63;;;10.02;;
23578;SDS011;11967;50.852;4.400;2023-10-31T03:45:42;13.52;;;10.35;;
23578;SDS011;11967;50.852;4.400;2023-10-31T03:48:08;13.13;;;10.10;;
23578;SDS011;11967;50.852;4.400;2023-10-31T03:50:34;14.15;;;10.07;;
23578;SDS011;11967;50.852;4.400;2023-10-31T03:53:00;14.18;;;9.65;;
23578;SDS011;11967;50.852;4.400;2023-10-31T03:55:25;16.42;;;9.30;;
23578;SDS011;11967;50.852;4.400;2023-10-31T03:57:51;12.10;;;9.25;;
23578;SDS011;11967;50.852;4.400;2023-10-31T04:00:17;10.77;;;9.13;;
23578;SDS011;11967;50.852;4.400;2023-10-31T04:02:43;13.38;;;9.52;;
23578;SDS011;11967;50.852;4.400;2023-10-31T04:05:09;13.18;;;9.98;;
23578;SDS011;11967;50.852;4.400;2023-10-31T04:07:34;14.68;;;10.45;;
23578;SDS011;11967;50.852;4.400;2023-10-31T04:10:00;12.98;;;10.15;;
23578;SDS011;11967;50.852;4.400;2023-10-31T04:12:26;13.63;;;10.68;;
23578;SDS011;11967;50.852;4.400;2023-10-31T04:14:52;12.82;;;10.60;;
23578;SDS011;11967;50.852;4.400;2023-10-31T04:17:17;14.50;;;10.98;;
23578;SDS011;11967;50.852;4.400;2023-10-31T04:19:43;14.63;;;12.10;;
23578;SDS011;11967;50.852;4.400;2023-10-31T04:22:09;13.68;;;11.70;;
23578;SDS011;11967;50.852;4.400;2023-10-31T04:24:34;16.15;;;11.88;;
23578;SDS011;11967;50.852;4.400;2023-10-31T04:27:00;13.57;;;11.07;;
23578;SDS011;11967;50.852;4.400;2023-10-31T04:29:25;15.88;;;11.98;;
23578;SDS011;11967;50.852;4.400;2023-10-31T04:31:51;13.13;;;11.25;;
23578;SDS011;11967;50.852;4.400;2023-10-31T04:34:16;16.27;;;11.32;;
23578;SDS011;11967;50.852;4.400;2023-10-31T04:36:42;14.90;;;11.52;;
23578;SDS011;11967;50.852;4.400;2023-10-31T04:39:08;17.90;;;11.63;;
23578;SDS011;11967;50.852;4.400;2023-10-31T04:41:34;18.23;;;12.32;;
23578;SDS011;11967;50.852;4.400;2023-10-31T04:44:00;14.68;;;12.27;;
23578;SDS011;11967;50.852;4.400;2023-10-31T04:46:26;16.45;;;11.85;;
23578;SDS011;11967;50.852;4.400;2023-10-31T04:48:54;16.05;;;12.38;;
23578;SDS011;11967;50.852;4.400;2023-10-31T04:51:20;17.23;;;12.68;;
23578;SDS011;11967;50.852;4.400;2023-10-31T04:53:45;18.23;;;13.07;;
23578;SDS011;11967;50.852;4.400;2023-10-31T04:56:12;17.33;;;12.88;;
23578;SDS011;11967;50.852;4.400;2023-10-31T04:58:41;19.05;;;14.18;;
23578;SDS011;11967;50.852;4.400;2023-10-31T05:01:13;23.77;;;14.10;;
23578;SDS011;11967;50.852;4.400;2023-10-31T05:03:39;18.70;;;13.63;;
23578;SDS011;11967;50.852;4.400;2023-10-31T05:06:05;18.83;;;14.05;;
23578;SDS011;11967;50.852;4.400;2023-10-31T05:08:31;18.33;;;13.70;;
23578;SDS011;11967;50.852;4.400;2023-10-31T05:10:57;18.55;;;13.50;;
23578;SDS011;11967;50.852;4.400;2023-10-31T05:13:24;19.27;;;14.25;;
23578;SDS011;11967;50.852;4.400;2023-10-31T05:15:50;20.95;;;13.18;;
23578;SDS011;11967;50.852;4.400;2023-10-31T05:18:17;18.13;;;14.15;;
23578;SDS011;11967;50.852;4.400;2023-10-31T05:20:43;17.52;;;13.90;;
23578;SDS011;11967;50.852;4.400;2023-10-31T05:23:08;22.63;;;14.02;;
23578;SDS011;11967;50.852;4.400;2023-10-31T05:25:34;15.13;;;12.77;;
23578;SDS011;11967;50.852;4.400;2023-10-31T05:28:00;18.45;;;13.07;;
23578;SDS011;11967;50.852;4.400;2023-10-31T05:30:26;16.00;;;12.73;;
23578;SDS011;11967;50.852;4.400;2023-10-31T05:32:52;17.60;;;13.00;;
23578;SDS011;11967;50.852;4.400;2023-10-31T05:35:17;17.15;;;12.38;;
23578;SDS011;11967;50.852;4.400;2023-10-31T05:37:45;15.18;;;12.52;;
23578;SDS011;11967;50.852;4.400;2023-10-31T05:40:11;18.45;;;12.50;;
23578;SDS011;11967;50.852;4.400;2023-10-31T05:42:37;15.75;;;12.88;;
23578;SDS011;11967;50.852;4.400;2023-10-31T05:45:03;18.27;;;14.30;;
23578;SDS011;11967;50.852;4.400;2023-10-31T05:47:29;19.90;;;14.05;;
23578;SDS011;11967;50.852;4.400;2023-10-31T05:49:55;16.80;;;13.50;;
23578;SDS011;11967;50.852;4.400;2023-10-31T05:52:20;25.13;;;14.88;;
23578;SDS011;11967;50.852;4.400;2023-10-31T05:54:46;20.60;;;14.73;;
23578;SDS011;11967;50.852;4.400;2023-10-31T05:57:12;22.38;;;13.68;;
23578;SDS011;11967;50.852;4.400;2023-10-31T05:59:37;21.13;;;14.13;;
23578;SDS011;11967;50.852;4.400;2023-10-31T06:02:03;20.10;;;14.25;;
23578;SDS011;11967;50.852;4.400;2023-10-31T06:04:29;17.92;;;13.43;;
23578;SDS011;11967;50.852;4.400;2023-10-31T06:06:55;17.95;;;12.93;;
23578;SDS011;11967;50.852;4.400;2023-10-31T06:09:20;19.15;;;13.70;;
23578;SDS011;11967;50.852;4.400;2023-10-31T06:11:46;18.08;;;13.02;;
23578;SDS011;11967;50.852;4.400;2023-10-31T06:14:12;17.27;;;12.35;;
23578;SDS011;11967;50.852;4.400;2023-10-31T06:16:41;15.48;;;11.48;;
23578;SDS011;11967;50.852;4.400;2023-10-31T06:19:08;15.50;;;11.63;;
23578;SDS011;11967;50.852;4.400;2023-10-31T06:21:33;16.98;;;11.60;;
23578;SDS011;11967;50.852;4.400;2023-10-31T06:23:59;14.35;;;11.25;;
23578;SDS011;11967;50.852;4.400;2023-10-31T06:26:26;15.02;;;11.02;;
23578;SDS011;11967;50.852;4.400;2023-10-31T06:28:51;15.10;;;10.75;;
23578;SDS011;11967;50.852;4.400;2023-10-31T06:31:17;16.40;;;10.80;;
23578;SDS011;11967;50.852;4.400;2023-10-31T06:33:42;14.30;;;10.35;;
23578;SDS011;11967;50.852;4.400;2023-10-31T06:36:08;13.80;;;9.93;;
23578;SDS011;11967;50.852;4.400;2023-10-31T06:38:34;14.38;;;10.25;;
23578;SDS011;11967;50.852;4.400;2023-10-31T06:40:59;11.95;;;10.45;;
23578;SDS011;11967;50.852;4.400;2023-10-31T06:43:25;11.82;;;9.80;;
23578;SDS011;11967;50.852;4.400;2023-10-31T06:45:52;17.50;;;10.25;;
23578;SDS011;11967;50.852;4.400;2023-10-31T06:48:18;13.35;;;10.05;;
23578;SDS011;11967;50.852;4.400;2023-10-31T06:50:43;12.30;;;9.45;;
23578;SDS011;11967;50.852;4.400;2023-10-31T06:53:09;12.13;;;9.38;;
23578;SDS011;11967;50.852;4.400;2023-10-31T06:55:35;14.88;;;10.40;;
23578;SDS011;11967;50.852;4.400;2023-10-31T06:58:02;11.82;;;9.15;;
23578;SDS011;11967;50.852;4.400;2023-10-31T07:00:27;13.50;;;10.05;;
23578;SDS011;11967;50.852;4.400;2023-10-31T07:02:53;14.05;;;9.35;;
23578;SDS011;11967;50.852;4.400;2023-10-31T07:05:19;16.48;;;9.10;;
23578;SDS011;11967;50.852;4.400;2023-10-31T07:07:47;15.38;;;9.00;;
23578;SDS011;11967;50.852;4.400;2023-10-31T07:10:14;14.05;;;9.30;;
23578;SDS011;11967;50.852;4.400;2023-10-31T07:12:39;12.77;;;8.85;;
23578;SDS011;11967;50.852;4.400;2023-10-31T07:15:05;10.60;;;8.50;;
23578;SDS011;11967;50.852;4.400;2023-10-31T07:17:31;11.10;;;8.95;;
23578;SDS011;11967;50.852;4.400;2023-10-31T07:19:57;14.07;;;8.18;;
23578;SDS011;11967;50.852;4.400;2023-10-31T07:22:25;12.23;;;8.70;;
23578;SDS011;11967;50.852;4.400;2023-10-31T07:24:51;14.98;;;8.93;;
23578;SDS011;11967;50.852;4.400;2023-10-31T07:27:17;11.27;;;8.70;;
23578;SDS011;11967;50.852;4.400;2023-10-31T07:29:43;11.65;;;9.02;;
23578;SDS011;11967;50.852;4.400;2023-10-31T07:32:09;13.07;;;8.57;;
23578;SDS011;11967;50.852;4.400;2023-10-31T07:34:35;11.52;;;8.82;;
23578;SDS011;11967;50.852;4.400;2023-10-31T07:37:00;10.90;;;8.75;;
23578;SDS011;11967;50.852;4.400;2023-10-31T07:39:26;12.43;;;7.82;;
23578;SDS011;11967;50.852;4.400;2023-10-31T07:41:53;11.10;;;8.15;;
23578;SDS011;11967;50.852;4.400;2023-10-31T07:44:18;14.23;;;8.70;;
23578;SDS011;11967;50.852;4.400;2023-10-31T07:46:44;12.40;;;8.35;;
23578;SDS011;11967;50.852;4.400;2023-10-31T07:49:10;12.43;;;8.40;;
23578;SDS011;11967;50.852;4.400;2023-10-31T07:51:35;11.85;;;8.15;;
23578;SDS011;11967;50.852;4.400;2023-10-31T07:54:01;14.95;;;8.15;;
23578;SDS011;11967;50.852;4.400;2023-10-31T07:56:26;12.27;;;8.30;;
23578;SDS011;11967;50.852;4.400;2023-10-31T07:58:53;16.58;;;8.38;;
23578;SDS011;11967;50.852;4.400;2023-10-31T08:01:20;10.43;;;7.55;;
23578;SDS011;11967;50.852;4.400;2023-10-31T08:03:46;13.52;;;7.18;;
23578;SDS011;11967;50.852;4.400;2023-10-31T08:06:12;8.93;;;7.10;;
23578;SDS011;11967;50.852;4.400;2023-10-31T08:08:38;12.25;;;6.68;;
23578;SDS011;11967;50.852;4.400;2023-10-31T08:11:07;10.93;;;7.10;;
23578;SDS011;11967;50.852;4.400;2023-10-31T08:13:35;11.60;;;7.00;;
23578;SDS011;11967;50.852;4.400;2023-10-31T08:16:02;12.50;;;6.85;;
23578;SDS011;11967;50.852;4.400;2023-10-31T08:18:28;11.45;;;6.57;;
23578;SDS011;11967;50.852;4.400;2023-10-31T08:20:54;14.80;;;6.28;;
23578;SDS011;11967;50.852;4.400;2023-10-31T08:23:20;7.75;;;5.85;;
23578;SDS011;11967;50.852;4.400;2023-10-31T08:25:45;15.82;;;5.90;;
23578;SDS011;11967;50.852;4.400;2023-10-31T08:28:11;11.90;;;6.03;;
23578;SDS011;11967;50.852;4.400;2023-10-31T08:30:37;8.60;;;5.80;;
23578;SDS011;11967;50.852;4.400;2023-10-31T08:33:04;11.73;;;5.95;;
23578;SDS011;11967;50.852;4.400;2023-10-31T08:35:29;9.30;;;5.95;;
23578;SDS011;11967;50.852;4.400;2023-10-31T08:37:56;9.23;;;5.35;;
23578;SDS011;11967;50.852;4.400;2023-10-31T08:40:22;11.13;;;5.85;;
23578;SDS011;11967;50.852;4.400;2023-10-31T08:42:48;8.85;;;5.57;;
23578;SDS011;11967;50.852;4.400;2023-10-31T08:45:14;13.57;;;5.57;;
23578;SDS011;11967;50.852;4.400;2023-10-31T08:47:40;10.27;;;5.15;;
23578;SDS011;11967;50.852;4.400;2023-10-31T08:50:06;16.50;;;5.80;;
23578;SDS011;11967;50.852;4.400;2023-10-31T08:52:33;13.07;;;5.80;;
23578;SDS011;11967;50.852;4.400;2023-10-31T08:55:00;11.55;;;5.68;;
23578;SDS011;11967;50.852;4.400;2023-10-31T08:57:26;9.02;;;5.03;;
23578;SDS011;11967;50.852;4.400;2023-10-31T08:59:54;7.50;;;4.95;;
23578;SDS011;11967;50.852;4.400;2023-10-31T09:02:19;13.15;;;5.50;;
23578;SDS011;11967;50.852;4.400;2023-10-31T09:04:45;11.90;;;5.78;;
23578;SDS011;11967;50.852;4.400;2023-10-31T09:07:10;10.38;;;5.10;;
23578;SDS011;11967;50.852;4.400;2023-10-31T09:09:36;13.60;;;5.82;;
23578;SDS011;11967;50.852;4.400;2023-10-31T09:12:02;9.68;;;4.70;;
23578;SDS011;11967;50.852;4.400;2023-10-31T09:14:28;13.30;;;5.18;;
23578;SDS011;11967;50.852;4.400;2023-10-31T09:16:53;15.10;;;5.32;;
23578;SDS011;11967;50.852;4.400;2023-10-31T09:19:19;10.52;;;4.60;;
23578;SDS011;11967;50.852;4.400;2023-10-31T09:21:45;10.40;;;5.05;;
23578;SDS011;11967;50.852;4.400;2023-10-31T09:24:10;16.15;;;4.97;;
23578;SDS011;11967;50.852;4.400;2023-10-31T09:26:36;11.30;;;4.82;;
23578;SDS011;11967;50.852;4.400;2023-10-31T09:29:02;11.07;;;4.63;;
23578;SDS011;11967;50.852;4.400;2023-10-31T09:31:28;16.83;;;5.40;;
23578;SDS011;11967;50.852;4.400;2023-10-31T09:33:54;13.65;;;4.75;;
23578;SDS011;11967;50.852;4.400;2023-10-31T09:36:19;11.00;;;5.10;;
23578;SDS011;11967;50.852;4.400;2023-10-31T09:38:45;19.35;;;5.30;;
23578;SDS011;11967;50.852;4.400;2023-10-31T09:41:12;12.98;;;5.20;;
23578;SDS011;11967;50.852;4.400;2023-10-31T09:43:39;9.40;;;4.70;;
23578;SDS011;11967;50.852;4.400;2023-10-31T09:46:05;14.73;;;5.05;;
23578;SDS011;11967;50.852;4.400;2023-10-31T09:48:31;14.10;;;5.05;;
23578;SDS011;11967;50.852;4.400;2023-10-31T09:50:57;12.35;;;5.35;;
23578;SDS011;11967;50.852;4.400;2023-10-31T09:53:23;11.43;;;5.43;;
23578;SDS011;11967;50.852;4.400;2023-10-31T09:55:49;15.68;;;5.32;;
23578;SDS011;11967;50.852;4.400;2023-10-31T09:58:17;12.65;;;5.00;;
23578;SDS011;11967;50.852;4.400;2023-10-31T10:00:43;15.32;;;5.53;;
23578;SDS011;11967;50.852;4.400;2023-10-31T10:03:08;14.43;;;5.85;;
23578;SDS011;11967;50.852;4.400;2023-10-31T10:05:37;14.57;;;5.65;;
23578;SDS011;11967;50.852;4.400;2023-10-31T10:08:06;13.93;;;5.28;;
23578;SDS011;11967;50.852;4.400;2023-10-31T10:10:33;9.75;;;4.95;;
23578;SDS011;11967;50.852;4.400;2023-10-31T10:12:59;13.27;;;5.07;;
23578;SDS011;11967;50.852;4.400;2023-10-31T10:15:27;12.00;;;5.07;;
23578;SDS011;11967;50.852;4.400;2023-10-31T10:17:53;13.02;;;5.25;;
23578;SDS011;11967;50.852;4.400;2023-10-31T10:20:19;11.10;;;4.93;;
23578;SDS011;11967;50.852;4.400;2023-10-31T10:22:46;13.70;;;4.97;;
23578;SDS011;11967;50.852;4.400;2023-10-31T10:25:16;17.38;;;5.72;;
23578;SDS011;11967;50.852;4.400;2023-10-31T10:30:13;13.00;;;5.40;;
23578;SDS011;11967;50.852;4.400;2023-10-31T10:32:39;17.65;;;5.60;;
23578;SDS011;11967;50.852;4.400;2023-10-31T10:35:06;15.07;;;5.50;;
23578;SDS011;11967;50.852;4.400;2023-10-31T10:37:32;10.07;;;5.50;;
23578;SDS011;11967;50.852;4.400;2023-10-31T10:40:00;16.17;;;6.05;;
23578;SDS011;11967;50.852;4.400;2023-10-31T10:42:47;14.88;;;5.43;;
23578;SDS011;11967;50.852;4.400;2023-10-31T10:45:13;15.43;;;4.93;;
23578;SDS011;11967;50.852;4.400;2023-10-31T10:47:45;15.13;;;5.47;;
23578;SDS011;11967;50.852;4.400;2023-10-31T10:50:13;13.35;;;5.28;;
23578;SDS011;11967;50.852;4.400;2023-10-31T10:52:41;15.32;;;5.60;;
23578;SDS011;11967;50.852;4.400;2023-10-31T10:55:21;14.80;;;5.50;;
23578;SDS011;11967;50.852;4.400;2023-10-31T10:58:00;18.55;;;6.30;;
23578;SDS011;11967;50.852;4.400;2023-10-31T11:00:30;13.25;;;6.78;;
23578;SDS011;11967;50.852;4.400;2023-10-31T11:02:56;12.50;;;6.32;;
23578;SDS011;11967;50.852;4.400;2023-10-31T11:05:25;16.80;;;6.65;;
23578;SDS011;11967;50.852;4.400;2023-10-31T11:07:51;14.18;;;6.68;;
23578;SDS011;11967;50.852;4.400;2023-10-31T11:10:18;16.65;;;7.32;;
23578;SDS011;11967;50.852;4.400;2023-10-31T11:12:43;19.73;;;8.80;;
23578;SDS011;11967;50.852;4.400;2023-10-31T11:15:11;26.33;;;11.80;;
23578;SDS011;11967;50.852;4.400;2023-10-31T11:17:40;25.33;;;13.18;;
23578;SDS011;11967;50.852;4.400;2023-10-31T11:20:09;26.95;;;14.15;;
23578;SDS011;11967;50.852;4.400;2023-10-31T11:22:43;27.65;;;14.68;;
23578;SDS011;11967;50.852;4.400;2023-10-31T11:25:12;26.02;;;15.02;;
23578;SDS011;11967;50.852;4.400;2023-10-31T11:27:39;29.27;;;15.15;;
23578;SDS011;11967;50.852;4.400;2023-10-31T11:30:07;28.58;;;15.48;;
23578;SDS011;11967;50.852;4.400;2023-10-31T11:32:48;24.20;;;14.40;;
23578;SDS011;11967;50.852;4.400;2023-10-31T11:35:16;22.38;;;12.50;;
23578;SDS011;11967;50.852;4.400;2023-10-31T11:37:43;22.83;;;12.93;;
23578;SDS011;11967;50.852;4.400;2023-10-31T11:40:30;27.83;;;13.95;;
23578;SDS011;11967;50.852;4.400;2023-10-31T11:47:52;26.00;;;13.95;;
23578;SDS011;11967;50.852;4.400;2023-10-31T11:50:18;29.35;;;13.85;;
23578;SDS011;11967;50.852;4.400;2023-10-31T11:52:44;23.33;;;13.25;;
23578;SDS011;11967;50.852;4.400;2023-10-31T11:55:10;25.20;;;12.73;;
23578;SDS011;11967;50.852;4.400;2023-10-31T11:57:37;20.35;;;12.32;;
23578;SDS011;11967;50.852;4.400;2023-10-31T12:00:05;30.35;;;11.70;;
23578;SDS011;11967;50.852;4.400;2023-10-31T12:02:35;20.27;;;11.15;;
23578;SDS011;11967;50.852;4.400;2023-10-31T12:05:10;20.77;;;10.50;;
23578;SDS011;11967;50.852;4.400;2023-10-31T12:07:46;20.77;;;9.88;;
23578;SDS011;11967;50.852;4.400;2023-10-31T12:10:12;15.70;;;8.32;;
23578;SDS011;11967;50.852;4.400;2023-10-31T12:12:47;15.63;;;7.75;;
23578;SDS011;11967;50.852;4.400;2023-10-31T12:15:13;13.65;;;8.02;;
23578;SDS011;11967;50.852;4.400;2023-10-31T12:17:39;13.23;;;7.55;;
23578;SDS011;11967;50.852;4.400;2023-10-31T12:20:05;17.67;;;7.60;;
23578;SDS011;11967;50.852;4.400;2023-10-31T12:22:32;12.13;;;7.30;;
23578;SDS011;11967;50.852;4.400;2023-10-31T12:30:16;12.10;;;7.13;;
23578;SDS011;11967;50.852;4.400;2023-10-31T12:32:43;14.73;;;7.70;;
23578;SDS011;11967;50.852;4.400;2023-10-31T12:35:13;13.55;;;6.95;;
23578;SDS011;11967;50.852;4.400;2023-10-31T12:37:47;11.07;;;6.78;;
23578;SDS011;11967;50.852;4.400;2023-10-31T12:40:16;14.80;;;6.70;;
23578;SDS011;11967;50.852;4.400;2023-10-31T12:42:43;10.35;;;6.47;;
23578;SDS011;11967;50.852;4.400;2023-10-31T12:45:10;12.18;;;6.72;;
23578;SDS011;11967;50.852;4.400;2023-10-31T12:47:37;14.02;;;6.35;;
23578;SDS011;11967;50.852;4.400;2023-10-31T12:50:09;13.10;;;5.78;;
23578;SDS011;11967;50.852;4.400;2023-10-31T12:55:14;9.48;;;5.32;;
23578;SDS011;11967;50.852;4.400;2023-10-31T12:57:41;10.25;;;4.50;;
23578;SDS011;11967;50.852;4.400;2023-10-31T13:00:07;7.07;;;4.40;;
23578;SDS011;11967;50.852;4.400;2023-10-31T13:02:37;7.50;;;3.95;;
23578;SDS011;11967;50.852;4.400;2023-10-31T13:05:10;8.50;;;4.05;;
23578;SDS011;11967;50.852;4.400;2023-10-31T13:07:37;6.50;;;3.78;;
23578;SDS011;11967;50.852;4.400;2023-10-31T13:10:04;7.43;;;3.80;;
23578;SDS011;11967;50.852;4.400;2023-10-31T13:12:30;9.05;;;4.90;;
23578;SDS011;11967;50.852;4.400;2023-10-31T13:14:57;6.13;;;3.63;;
23578;SDS011;11967;50.852;4.400;2023-10-31T13:17:22;6.40;;;4.30;;
23578;SDS011;11967;50.852;4.400;2023-10-31T13:19:48;5.75;;;3.88;;
23578;SDS011;11967;50.852;4.400;2023-10-31T13:22:14;6.75;;;4.07;;
23578;SDS011;11967;50.852;4.400;2023-10-31T13:24:39;6.43;;;3.90;;
23578;SDS011;11967;50.852;4.400;2023-10-31T13:27:05;7.35;;;4.60;;
23578;SDS011;11967;50.852;4.400;2023-10-31T13:29:32;9.85;;;4.78;;
23578;SDS011;11967;50.852;4.400;2023-10-31T13:31:58;8.10;;;5.13;;
23578;SDS011;11967;50.852;4.400;2023-10-31T13:34:24;11.98;;;6.53;;
23578;SDS011;11967;50.852;4.400;2023-10-31T13:36:49;11.30;;;6.63;;
23578;SDS011;11967;50.852;4.400;2023-10-31T13:39:17;14.90;;;7.13;;
23578;SDS011;11967;50.852;4.400;2023-10-31T13:41:43;12.48;;;6.97;;
23578;SDS011;11967;50.852;4.400;2023-10-31T13:44:08;10.95;;;7.05;;
23578;SDS011;11967;50.852;4.400;2023-10-31T13:46:34;12.20;;;6.90;;
23578;SDS011;11967;50.852;4.400;2023-10-31T13:49:01;17.25;;;7.70;;
23578;SDS011;11967;50.852;4.400;2023-10-31T13:51:26;15.10;;;7.50;;
23578;SDS011;11967;50.852;4.400;2023-10-31T13:53:52;13.85;;;7.30;;
23578;SDS011;11967;50.852;4.400;2023-10-31T13:56:17;12.90;;;6.43;;
23578;SDS011;11967;50.852;4.400;2023-10-31T13:58:43;11.23;;;6.50;;
23578;SDS011;11967;50.852;4.400;2023-10-31T14:01:09;11.95;;;6.70;;
23578;SDS011;11967;50.852;4.400;2023-10-31T14:03:34;13.55;;;6.80;;
23578;SDS011;11967;50.852;4.400;2023-10-31T14:06:00;14.05;;;6.15;;
23578;SDS011;11967;50.852;4.400;2023-10-31T14:08:26;12.85;;;6.28;;
23578;SDS011;11967;50.852;4.400;2023-10-31T14:10:52;13.80;;;6.18;;
23578;SDS011;11967;50.852;4.400;2023-10-31T14:13:19;11.73;;;5.72;;
23578;SDS011;11967;50.852;4.400;2023-10-31T14:15:46;11.90;;;5.95;;
23578;SDS011;11967;50.852;4.400;2023-10-31T14:18:11;10.10;;;5.60;;
23578;SDS011;11967;50.852;4.400;2023-10-31T14:20:37;11.57;;;5.78;;
23578;SDS011;11967;50.852;4.400;2023-10-31T14:23:04;11.80;;;5.30;;
23578;SDS011;11967;50.852;4.400;2023-10-31T14:25:30;12.52;;;5.72;;
23578;SDS011;11967;50.852;4.400;2023-10-31T14:27:55;9.98;;;5.40;;
23578;SDS011;11967;50.852;4.400;2023-10-31T14:30:21;8.35;;;4.70;;
23578;SDS011;11967;50.852;4.400;2023-10-31T14:32:47;10.23;;;4.70;;
23578;SDS011;11967;50.852;4.400;2023-10-31T14:35:12;11.18;;;4.90;;
23578;SDS011;11967;50.852;4.400;2023-10-31T14:37:38;13.73;;;4.88;;
23578;SDS011;11967;50.852;4.400;2023-10-31T14:40:04;10.00;;;4.63;;
23578;SDS011;11967;50.852;4.400;2023-10-31T14:42:30;12.98;;;4.90;;
23578;SDS011;11967;50.852;4.400;2023-10-31T14:44:56;6.90;;;4.00;;
23578;SDS011;11967;50.852;4.400;2023-10-31T14:47:22;9.27;;;4.68;;